createdAt,value
2023-03-31T00:10:26.558Z,2.25
2023-03-31T00:15:59.314Z,2.40
2023-03-31T00:21:30.017Z,2.13
2023-03-31T00:26:53.721Z,2.97
2023-03-31T00:32:18.694Z,2.22
2023-03-31T00:43:25.071Z,2.22
2023-03-31T00:48:57.715Z,1.65
2023-03-31T00:54:21.582Z,2.17
2023-03-31T00:59:46.744Z,2.20
2023-03-31T01:05:13.123Z,2.33
2023-03-31T01:10:42.871Z,2.42
2023-03-31T01:16:13.244Z,3.13
2023-03-31T01:22:11.065Z,4.25
2023-03-31T01:27:49.064Z,3.15
2023-03-31T01:33:22.215Z,3.40
2023-03-31T01:38:54.046Z,2.72
2023-03-31T01:44:21.952Z,2.38
2023-03-31T01:49:47.692Z,2.17
2023-03-31T01:55:13.483Z,2.38
2023-03-31T02:00:42.111Z,2.42
2023-03-31T02:06:10.434Z,2.88
2023-03-31T02:11:35.928Z,3.67
2023-03-31T02:17:03.953Z,2.50
2023-03-31T02:22:28.197Z,2.08
2023-03-31T02:27:55.398Z,2.75
2023-03-31T02:33:21.336Z,2.83
2023-03-31T02:38:47.561Z,3.20
2023-03-31T02:44:11.810Z,3.30
2023-03-31T02:49:39.425Z,2.92
2023-03-31T02:55:21.353Z,2.78
2023-03-31T03:00:53.000Z,2.80
2023-03-31T03:06:25.274Z,3.50
2023-03-31T03:12:07.865Z,5.43
2023-03-31T03:17:34.990Z,6.95
2023-03-31T03:23:00.571Z,6.93
2023-03-31T03:28:24.663Z,8.02
2023-03-31T03:33:49.082Z,6.38
2023-03-31T03:39:15.024Z,8.05
2023-03-31T03:44:40.565Z,7.47
2023-03-31T03:50:06.359Z,6.28
2023-03-31T03:55:31.885Z,5.82
2023-03-31T04:00:57.576Z,5.82
2023-03-31T04:06:21.773Z,6.25
2023-03-31T04:11:46.398Z,5.05
2023-03-31T04:17:10.709Z,6.40
2023-03-31T04:22:35.361Z,10.50
2023-03-31T04:28:00.196Z,18.40
2023-03-31T04:33:24.530Z,19.15
2023-03-31T04:38:50.707Z,17.33
2023-03-31T04:44:16.041Z,15.52
2023-03-31T04:49:39.456Z,18.33
2023-03-31T04:55:03.129Z,17.02
2023-03-31T05:00:28.935Z,17.20
2023-03-31T05:05:55.231Z,16.83
2023-03-31T05:11:19.124Z,14.38
2023-03-31T05:16:45.203Z,14.70
2023-03-31T05:22:09.431Z,12.20
2023-03-31T05:27:33.361Z,12.77
2023-03-31T05:32:58.648Z,11.80
2023-03-31T05:38:22.892Z,12.55
2023-03-31T05:43:46.936Z,13.23
2023-03-31T05:49:16.302Z,13.13
2023-03-31T05:54:40.949Z,13.32
2023-03-31T06:00:09.547Z,14.13
2023-03-31T06:05:35.256Z,15.80
2023-03-31T06:10:59.526Z,11.63
2023-03-31T06:16:25.123Z,11.65
2023-03-31T06:21:51.669Z,12.48
2023-03-31T06:27:15.985Z,6.78
2023-03-31T06:32:40.584Z,7.88
2023-03-31T06:38:06.555Z,5.85
2023-03-31T06:43:30.824Z,5.15
2023-03-31T06:48:55.833Z,6.55
2023-03-31T06:54:21.235Z,9.10
2023-03-31T06:59:48.092Z,6.10
2023-03-31T07:05:12.268Z,8.15
2023-03-31T07:10:37.745Z,4.97
2023-03-31T07:16:01.924Z,4.68
2023-03-31T07:21:26.119Z,6.90
2023-03-31T07:26:51.128Z,5.53
2023-03-31T07:32:15.469Z,5.70
2023-03-31T07:37:41.225Z,8.68
2023-03-31T07:43:08.638Z,5.28
2023-03-31T07:48:34.319Z,5.80
2023-03-31T07:53:58.291Z,2.95
2023-03-31T07:59:26.700Z,3.58
2023-03-31T08:04:52.530Z,5.05
2023-03-31T08:10:17.802Z,4.93
2023-03-31T08:15:43.985Z,5.70
2023-03-31T08:21:09.735Z,6.63
2023-03-31T08:26:35.099Z,7.30
2023-03-31T08:32:00.879Z,6.53
2023-03-31T08:37:28.276Z,8.30
2023-03-31T08:42:55.563Z,7.70
2023-03-31T08:48:26.046Z,7.45
2023-03-31T08:53:51.863Z,6.85
2023-03-31T08:59:19.415Z,4.07
2023-03-31T09:04:59.923Z,4.50
2023-03-31T09:10:29.007Z,4.80
2023-03-31T09:15:56.320Z,4.35
2023-03-31T09:21:23.919Z,3.88
2023-03-31T09:26:49.745Z,4.88
2023-03-31T09:32:15.881Z,3.60
2023-03-31T09:37:40.875Z,3.25
2023-03-31T09:43:06.311Z,3.08
2023-03-31T09:48:36.151Z,3.03
2023-03-31T09:54:05.755Z,3.00
2023-03-31T09:59:32.754Z,2.75
2023-03-31T10:04:57.558Z,3.08
2023-03-31T10:10:28.160Z,3.55
2023-03-31T10:15:53.566Z,3.17
2023-03-31T10:21:21.788Z,3.58
2023-03-31T10:26:49.680Z,2.28
2023-03-31T10:32:19.422Z,3.22
2023-03-31T10:37:44.686Z,3.42
2023-03-31T10:43:15.966Z,3.28
2023-03-31T10:48:41.476Z,3.08
2023-03-31T10:54:09.684Z,3.10
2023-03-31T10:59:42.863Z,3.25
2023-03-31T11:05:14.212Z,4.13
2023-03-31T11:10:50.528Z,3.20
2023-03-31T11:16:19.796Z,3.25
2023-03-31T11:21:48.736Z,3.45
2023-03-31T11:27:21.605Z,4.03
2023-03-31T11:32:54.205Z,3.92
2023-03-31T11:38:28.131Z,3.85
2023-03-31T11:43:54.355Z,3.45
2023-03-31T11:49:21.855Z,3.65
2023-03-31T11:54:50.925Z,4.28
2023-03-31T12:00:19.153Z,5.13
2023-03-31T12:05:47.153Z,4.22
2023-03-31T12:11:14.409Z,4.60
2023-03-31T12:16:39.986Z,3.65
2023-03-31T12:22:09.083Z,3.83
2023-03-31T12:27:37.841Z,2.78
2023-03-31T12:33:06.839Z,2.28
2023-03-31T12:38:42.091Z,2.92
2023-03-31T12:44:14.249Z,2.83
2023-03-31T12:49:47.249Z,2.70
2023-03-31T12:55:28.937Z,2.70
2023-03-31T13:01:05.318Z,2.75
2023-03-31T13:06:52.575Z,2.72
2023-03-31T13:12:19.945Z,2.00
2023-03-31T13:17:44.428Z,2.40
2023-03-31T13:23:16.181Z,1.80
2023-03-31T13:28:43.047Z,3.05
2023-03-31T13:34:09.345Z,1.90
2023-03-31T13:39:47.429Z,2.40
2023-03-31T13:45:25.103Z,2.95
2023-03-31T13:50:55.085Z,2.58
2023-03-31T13:56:35.011Z,2.85
2023-03-31T14:02:20.666Z,2.42
2023-03-31T14:07:47.594Z,3.08
2023-03-31T14:13:12.566Z,3.17
2023-03-31T14:18:39.369Z,3.63
2023-03-31T14:24:10.592Z,3.00
2023-03-31T14:29:40.796Z,3.03
2023-03-31T14:40:29.503Z,2.70
2023-03-31T14:45:59.753Z,3.30
2023-03-31T14:51:27.478Z,3.08
2023-03-31T14:56:54.107Z,3.53
2023-03-31T15:02:21.400Z,3.67
2023-03-31T15:07:46.620Z,3.00
2023-03-31T15:13:14.123Z,2.95
2023-03-31T15:18:40.912Z,3.20
2023-03-31T15:24:06.079Z,4.93
2023-03-31T15:29:35.975Z,4.13
2023-03-31T15:35:18.808Z,3.30
2023-03-31T15:40:50.555Z,3.97
2023-03-31T15:46:20.364Z,4.50
2023-03-31T15:51:47.641Z,4.32
2023-03-31T15:57:17.910Z,4.00
2023-03-31T16:02:46.492Z,3.55
2023-03-31T16:08:13.033Z,4.07
2023-03-31T16:13:40.305Z,3.65
2023-03-31T16:19:10.057Z,4.65
2023-03-31T16:24:36.066Z,4.25
2023-03-31T16:30:11.025Z,3.83
2023-03-31T16:35:36.996Z,4.78
2023-03-31T16:41:01.565Z,5.38
2023-03-31T16:46:26.797Z,5.25
2023-03-31T16:51:52.852Z,4.10
2023-03-31T16:57:16.741Z,4.10
2023-03-31T17:02:40.697Z,3.88
2023-03-31T17:08:06.655Z,3.97
2023-03-31T17:13:30.382Z,3.60
2023-03-31T17:18:54.358Z,3.90
2023-03-31T17:24:19.518Z,3.53
2023-03-31T17:29:46.867Z,3.47
2023-03-31T17:35:11.721Z,3.72
2023-03-31T17:40:37.766Z,2.85
2023-03-31T17:46:04.393Z,3.25
2023-03-31T17:51:28.891Z,3.05
2023-03-31T17:56:54.535Z,3.22
2023-03-31T18:02:18.694Z,3.05
2023-03-31T18:07:43.306Z,3.47
2023-03-31T18:13:10.026Z,4.05
2023-03-31T18:18:33.576Z,3.63
2023-03-31T18:23:57.365Z,3.53
2023-03-31T18:29:23.851Z,4.60
2023-03-31T18:34:48.378Z,3.53
2023-03-31T18:40:14.869Z,2.92
2023-03-31T18:45:40.542Z,2.85
2023-03-31T18:51:04.973Z,3.15
2023-03-31T18:56:30.783Z,2.65
2023-03-31T19:01:56.993Z,3.33
2023-03-31T19:07:22.778Z,3.75
2023-03-31T19:12:47.889Z,3.30
2023-03-31T19:18:14.705Z,3.88
2023-03-31T19:23:39.421Z,3.72
2023-03-31T19:29:08.046Z,4.30
2023-03-31T19:34:33.870Z,4.10
2023-03-31T19:39:57.800Z,3.78
2023-03-31T19:45:23.423Z,3.10
2023-03-31T19:50:51.770Z,4.47
2023-03-31T19:56:17.408Z,4.30
2023-03-31T20:01:41.724Z,3.47
2023-03-31T20:07:06.999Z,3.22
2023-03-31T20:12:32.084Z,3.47
2023-03-31T20:17:57.150Z,3.28
2023-03-31T20:23:23.500Z,4.05
2023-03-31T20:28:47.735Z,3.17
2023-03-31T20:34:14.993Z,2.92
2023-03-31T20:39:40.349Z,3.38
2023-03-31T20:45:04.796Z,2.97
2023-03-31T20:50:29.304Z,3.33
2023-03-31T20:55:54.076Z,2.88
2023-03-31T21:01:19.970Z,2.97
2023-03-31T21:06:46.703Z,3.42
2023-03-31T21:12:11.737Z,3.60
2023-03-31T21:17:35.780Z,3.20
2023-03-31T21:23:00.309Z,3.15
2023-03-31T21:28:26.823Z,3.50
2023-03-31T21:33:53.257Z,3.33
2023-03-31T21:39:18.150Z,3.20
2023-03-31T21:44:43.851Z,2.60
2023-03-31T21:50:08.038Z,3.30
2023-03-31T21:55:32.331Z,4.00
2023-03-31T22:00:58.042Z,3.83
2023-03-31T22:06:22.406Z,3.45
2023-03-31T22:11:46.866Z,2.90
2023-03-31T22:17:15.744Z,3.55
2023-03-31T22:22:40.458Z,3.08
2023-03-31T22:28:07.251Z,3.20
2023-03-31T22:33:34.410Z,3.70
2023-03-31T22:38:58.658Z,2.72
2023-03-31T22:44:22.937Z,2.70
2023-03-31T22:49:48.370Z,2.55
2023-03-31T22:55:12.746Z,2.35
2023-03-31T23:00:36.849Z,2.70
2023-03-31T23:06:05.250Z,2.60
2023-03-31T23:11:30.484Z,2.83
2023-03-31T23:16:54.992Z,3.20
2023-03-31T23:22:20.013Z,3.33
2023-03-31T23:27:43.542Z,2.20
2023-03-31T23:33:07.293Z,2.63
2023-03-31T23:38:32.752Z,2.70
2023-03-31T23:43:59.245Z,2.85
2023-03-31T23:49:23.575Z,3.00
2023-03-31T23:54:48.896Z,3.22
